sensor_id;sensor_type;location;lat;lon;timestamp;P1;durP1;ratioP1;P2;durP2;ratioP2
32838;SDS011;19182;41.820;12.808;2023-04-26T00:02:14;7.18;;;2.50;;
32838;SDS011;19182;41.820;12.808;2023-04-26T00:04:40;9.43;;;2.55;;
32838;SDS011;19182;41.820;12.808;2023-04-26T00:07:08;8.07;;;2.50;;
32838;SDS011;19182;41.820;12.808;2023-04-26T00:09:37;10.75;;;2.83;;
32838;SDS011;19182;41.820;12.808;2023-04-26T00:12:06;6.03;;;2.47;;
32838;SDS011;19182;41.820;12.808;2023-04-26T00:14:32;9.88;;;2.90;;
32838;SDS011;19182;41.820;12.808;2023-04-26T00:16:58;5.68;;;2.55;;
32838;SDS011;19182;41.820;12.808;2023-04-26T00:19:27;3.75;;;2.40;;
32838;SDS011;19182;41.820;12.808;2023-04-26T00:21:52;6.82;;;2.85;;
32838;SDS011;19182;41.820;12.808;2023-04-26T00:24:18;7.97;;;2.20;;
32838;SDS011;19182;41.820;12.808;2023-04-26T00:26:44;5.32;;;2.90;;
32838;SDS011;19182;41.820;12.808;2023-04-26T00:29:09;7.60;;;3.15;;
32838;SDS011;19182;41.820;12.808;2023-04-26T00:31:35;12.27;;;3.10;;
32838;SDS011;19182;41.820;12.808;2023-04-26T00:34:02;5.15;;;2.55;;
32838;SDS011;19182;41.820;12.808;2023-04-26T00:36:28;3.60;;;2.40;;
32838;SDS011;19182;41.820;12.808;2023-04-26T00:38:53;6.38;;;2.67;;
32838;SDS011;19182;41.820;12.808;2023-04-26T00:41:19;7.50;;;2.45;;
32838;SDS011;19182;41.820;12.808;2023-04-26T00:43:46;8.10;;;2.40;;
32838;SDS011;19182;41.820;12.808;2023-04-26T00:46:12;5.97;;;2.17;;
32838;SDS011;19182;41.820;12.808;2023-04-26T00:48:38;9.43;;;2.85;;
32838;SDS011;19182;41.820;12.808;2023-04-26T00:51:04;3.97;;;2.33;;
32838;SDS011;19182;41.820;12.808;2023-04-26T00:53:30;5.32;;;2.80;;
32838;SDS011;19182;41.820;12.808;2023-04-26T00:55:59;8.60;;;3.23;;
32838;SDS011;19182;41.820;12.808;2023-04-26T00:58:27;6.95;;;2.30;;
32838;SDS011;19182;41.820;12.808;2023-04-26T01:00:53;7.78;;;3.58;;
32838;SDS011;19182;41.820;12.808;2023-04-26T01:03:19;4.68;;;2.58;;
32838;SDS011;19182;41.820;12.808;2023-04-26T01:05:46;7.00;;;2.78;;
32838;SDS011;19182;41.820;12.808;2023-04-26T01:08:12;9.77;;;3.20;;
32838;SDS011;19182;41.820;12.808;2023-04-26T01:10:41;9.00;;;2.72;;
32838;SDS011;19182;41.820;12.808;2023-04-26T01:13:07;4.63;;;2.33;;
32838;SDS011;19182;41.820;12.808;2023-04-26T01:15:32;3.90;;;2.50;;
32838;SDS011;19182;41.820;12.808;2023-04-26T01:17:59;6.50;;;2.63;;
32838;SDS011;19182;41.820;12.808;2023-04-26T01:20:25;10.07;;;4.53;;
32838;SDS011;19182;41.820;12.808;2023-04-26T01:22:54;6.40;;;2.88;;
32838;SDS011;19182;41.820;12.808;2023-04-26T01:25:22;52.40;;;16.15;;
32838;SDS011;19182;41.820;12.808;2023-04-26T01:27:48;207.63;;;64.55;;
32838;SDS011;19182;41.820;12.808;2023-04-26T01:30:15;172.00;;;54.47;;
32838;SDS011;19182;41.820;12.808;2023-04-26T01:32:40;125.05;;;39.05;;
32838;SDS011;19182;41.820;12.808;2023-04-26T01:35:06;204.63;;;69.55;;
32838;SDS011;19182;41.820;12.808;2023-04-26T01:37:32;182.27;;;64.50;;
32838;SDS011;19182;41.820;12.808;2023-04-26T01:39:59;115.18;;;40.35;;
32838;SDS011;19182;41.820;12.808;2023-04-26T01:42:28;115.10;;;40.67;;
32838;SDS011;19182;41.820;12.808;2023-04-26T01:44:58;91.95;;;31.95;;
32838;SDS011;19182;41.820;12.808;2023-04-26T01:47:24;118.28;;;37.67;;
32838;SDS011;19182;41.820;12.808;2023-04-26T01:49:51;81.28;;;30.17;;
32838;SDS011;19182;41.820;12.808;2023-04-26T01:52:17;85.47;;;31.20;;
32838;SDS011;19182;41.820;12.808;2023-04-26T01:54:43;34.38;;;12.68;;
32838;SDS011;19182;41.820;12.808;2023-04-26T01:57:08;20.73;;;8.80;;
32838;SDS011;19182;41.820;12.808;2023-04-26T01:59:35;22.60;;;9.05;;
32838;SDS011;19182;41.820;12.808;2023-04-26T02:02:01;16.90;;;6.63;;
32838;SDS011;19182;41.820;12.808;2023-04-26T02:04:27;11.98;;;6.35;;
32838;SDS011;19182;41.820;12.808;2023-04-26T02:06:53;14.20;;;6.20;;
32838;SDS011;19182;41.820;12.808;2023-04-26T02:09:19;11.00;;;5.13;;
32838;SDS011;19182;41.820;12.808;2023-04-26T02:11:45;11.23;;;4.43;;
32838;SDS011;19182;41.820;12.808;2023-04-26T02:14:12;10.25;;;4.10;;
32838;SDS011;19182;41.820;12.808;2023-04-26T02:16:40;15.93;;;4.35;;
32838;SDS011;19182;41.820;12.808;2023-04-26T02:19:06;5.43;;;3.80;;
32838;SDS011;19182;41.820;12.808;2023-04-26T02:21:51;7.13;;;3.20;;
32838;SDS011;19182;41.820;12.808;2023-04-26T02:24:21;8.60;;;3.55;;
32838;SDS011;19182;41.820;12.808;2023-04-26T02:29:18;10.18;;;2.88;;
32838;SDS011;19182;41.820;12.808;2023-04-26T02:31:44;7.28;;;3.10;;
32838;SDS011;19182;41.820;12.808;2023-04-26T02:34:10;12.98;;;3.85;;
32838;SDS011;19182;41.820;12.808;2023-04-26T02:36:36;9.55;;;3.50;;
32838;SDS011;19182;41.820;12.808;2023-04-26T02:39:02;8.45;;;3.70;;
32838;SDS011;19182;41.820;12.808;2023-04-26T02:41:32;10.57;;;4.68;;
32838;SDS011;19182;41.820;12.808;2023-04-26T02:43:58;10.57;;;5.03;;
32838;SDS011;19182;41.820;12.808;2023-04-26T02:46:24;12.70;;;4.43;;
32838;SDS011;19182;41.820;12.808;2023-04-26T02:48:49;12.50;;;4.70;;
32838;SDS011;19182;41.820;12.808;2023-04-26T02:51:16;15.82;;;5.28;;
32838;SDS011;19182;41.820;12.808;2023-04-26T02:53:42;21.20;;;5.07;;
32838;SDS011;19182;41.820;12.808;2023-04-26T02:56:08;12.18;;;4.53;;
32838;SDS011;19182;41.820;12.808;2023-04-26T02:58:35;9.43;;;4.15;;
32838;SDS011;19182;41.820;12.808;2023-04-26T03:01:01;14.35;;;4.75;;
32838;SDS011;19182;41.820;12.808;2023-04-26T03:03:28;14.25;;;3.97;;
32838;SDS011;19182;41.820;12.808;2023-04-26T03:05:55;10.15;;;3.67;;
32838;SDS011;19182;41.820;12.808;2023-04-26T03:08:22;9.05;;;3.83;;
32838;SDS011;19182;41.820;12.808;2023-04-26T03:10:47;8.90;;;3.85;;
32838;SDS011;19182;41.820;12.808;2023-04-26T03:13:14;12.57;;;3.70;;
32838;SDS011;19182;41.820;12.808;2023-04-26T03:15:46;6.78;;;3.47;;
32838;SDS011;19182;41.820;12.808;2023-04-26T03:18:12;10.25;;;3.67;;
32838;SDS011;19182;41.820;12.808;2023-04-26T03:20:37;12.57;;;3.38;;
32838;SDS011;19182;41.820;12.808;2023-04-26T03:23:03;7.72;;;3.67;;
32838;SDS011;19182;41.820;12.808;2023-04-26T03:25:29;11.68;;;4.10;;
32838;SDS011;19182;41.820;12.808;2023-04-26T03:27:57;13.40;;;3.63;;
32838;SDS011;19182;41.820;12.808;2023-04-26T03:30:24;5.40;;;3.15;;
32838;SDS011;19182;41.820;12.808;2023-04-26T03:32:50;10.18;;;3.80;;
32838;SDS011;19182;41.820;12.808;2023-04-26T03:35:16;9.80;;;3.40;;
32838;SDS011;19182;41.820;12.808;2023-04-26T03:37:43;11.80;;;4.05;;
32838;SDS011;19182;41.820;12.808;2023-04-26T03:40:09;8.27;;;3.03;;
32838;SDS011;19182;41.820;12.808;2023-04-26T03:42:35;18.38;;;4.47;;
32838;SDS011;19182;41.820;12.808;2023-04-26T03:45:02;15.38;;;3.83;;
32838;SDS011;19182;41.820;12.808;2023-04-26T03:47:29;10.80;;;3.30;;
32838;SDS011;19182;41.820;12.808;2023-04-26T03:49:56;9.15;;;3.28;;
32838;SDS011;19182;41.820;12.808;2023-04-26T03:52:22;8.88;;;2.97;;
32838;SDS011;19182;41.820;12.808;2023-04-26T03:54:48;5.65;;;2.42;;
32838;SDS011;19182;41.820;12.808;2023-04-26T03:57:41;6.53;;;3.00;;
32838;SDS011;19182;41.820;12.808;2023-04-26T04:00:07;6.70;;;3.13;;
32838;SDS011;19182;41.820;12.808;2023-04-26T04:02:38;8.65;;;3.40;;
32838;SDS011;19182;41.820;12.808;2023-04-26T04:05:06;6.57;;;3.13;;
32838;SDS011;19182;41.820;12.808;2023-04-26T04:07:32;6.78;;;2.95;;
32838;SDS011;19182;41.820;12.808;2023-04-26T04:09:59;8.45;;;3.50;;
32838;SDS011;19182;41.820;12.808;2023-04-26T04:12:26;6.70;;;2.75;;
32838;SDS011;19182;41.820;12.808;2023-04-26T04:14:52;8.02;;;3.47;;
32838;SDS011;19182;41.820;12.808;2023-04-26T04:17:18;8.25;;;3.67;;
32838;SDS011;19182;41.820;12.808;2023-04-26T04:19:44;8.00;;;4.13;;
32838;SDS011;19182;41.820;12.808;2023-04-26T04:22:10;7.80;;;3.58;;
32838;SDS011;19182;41.820;12.808;2023-04-26T04:24:36;10.02;;;4.50;;
32838;SDS011;19182;41.820;12.808;2023-04-26T04:27:02;11.57;;;3.58;;
32838;SDS011;19182;41.820;12.808;2023-04-26T04:29:28;9.55;;;4.32;;
32838;SDS011;19182;41.820;12.808;2023-04-26T04:31:54;6.70;;;4.00;;
32838;SDS011;19182;41.820;12.808;2023-04-26T04:34:20;7.28;;;3.33;;
32838;SDS011;19182;41.820;12.808;2023-04-26T04:36:47;8.82;;;3.92;;
32838;SDS011;19182;41.820;12.808;2023-04-26T04:39:15;8.90;;;3.20;;
32838;SDS011;19182;41.820;12.808;2023-04-26T04:41:41;5.72;;;2.72;;
32838;SDS011;19182;41.820;12.808;2023-04-26T04:44:14;6.43;;;3.10;;
32838;SDS011;19182;41.820;12.808;2023-04-26T04:46:40;8.25;;;3.50;;
32838;SDS011;19182;41.820;12.808;2023-04-26T04:49:07;5.70;;;4.30;;
32838;SDS011;19182;41.820;12.808;2023-04-26T04:51:33;7.18;;;3.47;;
32838;SDS011;19182;41.820;12.808;2023-04-26T04:54:08;8.13;;;3.60;;
32838;SDS011;19182;41.820;12.808;2023-04-26T04:56:41;6.97;;;3.85;;
32838;SDS011;19182;41.820;12.808;2023-04-26T04:59:07;8.77;;;4.05;;
32838;SDS011;19182;41.820;12.808;2023-04-26T05:01:33;6.60;;;3.95;;
32838;SDS011;19182;41.820;12.808;2023-04-26T05:03:59;9.27;;;4.00;;
32838;SDS011;19182;41.820;12.808;2023-04-26T05:06:26;10.07;;;4.00;;
32838;SDS011;19182;41.820;12.808;2023-04-26T11:35:03;3.03;;;0.93;;
32838;SDS011;19182;41.820;12.808;2023-04-26T11:37:32;2.78;;;0.88;;
32838;SDS011;19182;41.820;12.808;2023-04-26T11:39:58;1.85;;;0.93;;
32838;SDS011;19182;41.820;12.808;2023-04-26T11:42:24;3.85;;;0.77;;
32838;SDS011;19182;41.820;12.808;2023-04-26T11:44:51;1.80;;;1.00;;
32838;SDS011;19182;41.820;12.808;2023-04-26T11:47:17;1.50;;;1.20;;
32838;SDS011;19182;41.820;12.808;2023-04-26T11:49:44;3.92;;;1.48;;
32838;SDS011;19182;41.820;12.808;2023-04-26T11:52:11;2.25;;;0.95;;
32838;SDS011;19182;41.820;12.808;2023-04-26T11:54:37;1.40;;;1.00;;
32838;SDS011;19182;41.820;12.808;2023-04-26T11:57:12;4.95;;;1.23;;
32838;SDS011;19182;41.820;12.808;2023-04-26T11:59:40;2.22;;;1.02;;
32838;SDS011;19182;41.820;12.808;2023-04-26T12:02:07;3.50;;;0.73;;
32838;SDS011;19182;41.820;12.808;2023-04-26T12:04:41;4.05;;;0.63;;
32838;SDS011;19182;41.820;12.808;2023-04-26T12:07:10;3.90;;;0.98;;
32838;SDS011;19182;41.820;12.808;2023-04-26T12:09:38;1.83;;;0.77;;
32838;SDS011;19182;41.820;12.808;2023-04-26T12:12:06;2.17;;;0.90;;
32838;SDS011;19182;41.820;12.808;2023-04-26T12:17:01;2.33;;;0.90;;
32838;SDS011;19182;41.820;12.808;2023-04-26T12:19:31;1.55;;;0.82;;
32838;SDS011;19182;41.820;12.808;2023-04-26T12:21:58;5.32;;;0.90;;
32838;SDS011;19182;41.820;12.808;2023-04-26T12:24:24;2.55;;;0.88;;
32838;SDS011;19182;41.820;12.808;2023-04-26T12:26:53;2.78;;;1.10;;
32838;SDS011;19182;41.820;12.808;2023-04-26T12:29:19;1.17;;;0.70;;
32838;SDS011;19182;41.820;12.808;2023-04-26T12:31:47;5.43;;;0.93;;
32838;SDS011;19182;41.820;12.808;2023-04-26T12:34:15;3.67;;;0.70;;
32838;SDS011;19182;41.820;12.808;2023-04-26T12:36:41;1.08;;;0.60;;
32838;SDS011;19182;41.820;12.808;2023-04-26T12:39:13;2.70;;;0.73;;
32838;SDS011;19182;41.820;12.808;2023-04-26T12:41:40;1.63;;;1.05;;
32838;SDS011;19182;41.820;12.808;2023-04-26T12:44:07;2.90;;;0.80;;
32838;SDS011;19182;41.820;12.808;2023-04-26T12:46:34;4.80;;;1.00;;
32838;SDS011;19182;41.820;12.808;2023-04-26T12:49:00;2.00;;;0.93;;
32838;SDS011;19182;41.820;12.808;2023-04-26T12:51:25;2.90;;;0.95;;
32838;SDS011;19182;41.820;12.808;2023-04-26T12:53:52;2.78;;;1.00;;
32838;SDS011;19182;41.820;12.808;2023-04-26T12:56:17;2.25;;;1.02;;
32838;SDS011;19182;41.820;12.808;2023-04-26T12:58:44;1.92;;;0.60;;
32838;SDS011;19182;41.820;12.808;2023-04-26T13:01:10;1.45;;;0.70;;
32838;SDS011;19182;41.820;12.808;2023-04-26T13:03:38;3.88;;;1.17;;
32838;SDS011;19182;41.820;12.808;2023-04-26T13:06:03;3.92;;;1.38;;
32838;SDS011;19182;41.820;12.808;2023-04-26T13:08:29;11.98;;;1.88;;
32838;SDS011;19182;41.820;12.808;2023-04-26T13:10:55;2.80;;;1.10;;
32838;SDS011;19182;41.820;12.808;2023-04-26T13:13:21;3.13;;;1.40;;
32838;SDS011;19182;41.820;12.808;2023-04-26T13:15:50;3.40;;;1.17;;
32838;SDS011;19182;41.820;12.808;2023-04-26T13:18:17;4.15;;;1.42;;
32838;SDS011;19182;41.820;12.808;2023-04-26T13:20:43;6.72;;;1.50;;
32838;SDS011;19182;41.820;12.808;2023-04-26T13:23:09;6.20;;;1.50;;
32838;SDS011;19182;41.820;12.808;2023-04-26T13:25:36;5.10;;;1.52;;
32838;SDS011;19182;41.820;12.808;2023-04-26T13:28:02;3.70;;;1.55;;
32838;SDS011;19182;41.820;12.808;2023-04-26T13:30:31;2.90;;;1.40;;
32838;SDS011;19182;41.820;12.808;2023-04-26T13:32:58;3.63;;;1.20;;
32838;SDS011;19182;41.820;12.808;2023-04-26T13:35:23;6.60;;;1.35;;
32838;SDS011;19182;41.820;12.808;2023-04-26T13:37:49;6.25;;;1.63;;
32838;SDS011;19182;41.820;12.808;2023-04-26T13:40:15;8.45;;;1.50;;
32838;SDS011;19182;41.820;12.808;2023-04-26T13:42:41;6.63;;;1.20;;
32838;SDS011;19182;41.820;12.808;2023-04-26T13:45:10;7.00;;;1.58;;
32838;SDS011;19182;41.820;12.808;2023-04-26T13:47:36;5.15;;;1.17;;
32838;SDS011;19182;41.820;12.808;2023-04-26T13:50:02;4.35;;;1.27;;
32838;SDS011;19182;41.820;12.808;2023-04-26T13:52:30;4.05;;;1.40;;
32838;SDS011;19182;41.820;12.808;2023-04-26T13:54:56;10.82;;;1.50;;
32838;SDS011;19182;41.820;12.808;2023-04-26T13:57:22;4.88;;;1.50;;
32838;SDS011;19182;41.820;12.808;2023-04-26T13:59:50;6.85;;;1.90;;
32838;SDS011;19182;41.820;12.808;2023-04-26T14:02:16;5.30;;;1.40;;
32838;SDS011;19182;41.820;12.808;2023-04-26T14:04:43;2.63;;;1.27;;
32838;SDS011;19182;41.820;12.808;2023-04-26T14:07:11;3.55;;;1.23;;
32838;SDS011;19182;41.820;12.808;2023-04-26T14:09:37;6.20;;;1.77;;
32838;SDS011;19182;41.820;12.808;2023-04-26T14:12:03;5.20;;;1.60;;
32838;SDS011;19182;41.820;12.808;2023-04-26T14:14:29;10.20;;;1.30;;
32838;SDS011;19182;41.820;12.808;2023-04-26T14:16:55;10.65;;;1.60;;
32838;SDS011;19182;41.820;12.808;2023-04-26T14:19:21;4.65;;;1.35;;
32838;SDS011;19182;41.820;12.808;2023-04-26T14:21:46;2.97;;;1.35;;
32838;SDS011;19182;41.820;12.808;2023-04-26T14:24:12;5.97;;;2.05;;
32838;SDS011;19182;41.820;12.808;2023-04-26T14:26:38;3.13;;;1.20;;
32838;SDS011;19182;41.820;12.808;2023-04-26T14:29:04;3.60;;;1.20;;
32838;SDS011;19182;41.820;12.808;2023-04-26T14:31:31;3.80;;;1.65;;
32838;SDS011;19182;41.820;12.808;2023-04-26T14:33:57;5.05;;;1.40;;
32838;SDS011;19182;41.820;12.808;2023-04-26T14:36:23;6.20;;;1.85;;
32838;SDS011;19182;41.820;12.808;2023-04-26T14:38:49;1.95;;;1.00;;
32838;SDS011;19182;41.820;12.808;2023-04-26T14:41:15;5.03;;;1.40;;
32838;SDS011;19182;41.820;12.808;2023-04-26T14:43:42;10.50;;;3.20;;
32838;SDS011;19182;41.820;12.808;2023-04-26T14:46:10;9.73;;;3.05;;
32838;SDS011;19182;41.820;12.808;2023-04-26T14:48:36;4.53;;;1.60;;
32838;SDS011;19182;41.820;12.808;2023-04-26T14:51:02;3.78;;;1.40;;
32838;SDS011;19182;41.820;12.808;2023-04-26T14:53:28;4.18;;;1.40;;
32838;SDS011;19182;41.820;12.808;2023-04-26T14:55:57;7.15;;;1.85;;
32838;SDS011;19182;41.820;12.808;2023-04-26T14:58:24;6.63;;;1.65;;
32838;SDS011;19182;41.820;12.808;2023-04-26T15:00:50;4.75;;;1.70;;
32838;SDS011;19182;41.820;12.808;2023-04-26T15:03:17;7.72;;;1.70;;
32838;SDS011;19182;41.820;12.808;2023-04-26T15:05:43;4.32;;;1.33;;
32838;SDS011;19182;41.820;12.808;2023-04-26T15:08:09;3.20;;;1.00;;
32838;SDS011;19182;41.820;12.808;2023-04-26T15:10:35;5.22;;;1.60;;
32838;SDS011;19182;41.820;12.808;2023-04-26T15:13:01;4.25;;;1.40;;
32838;SDS011;19182;41.820;12.808;2023-04-26T15:15:27;3.00;;;1.48;;
32838;SDS011;19182;41.820;12.808;2023-04-26T15:17:53;6.63;;;1.73;;
32838;SDS011;19182;41.820;12.808;2023-04-26T15:20:19;4.47;;;1.75;;
32838;SDS011;19182;41.820;12.808;2023-04-26T15:22:45;5.10;;;1.77;;
32838;SDS011;19182;41.820;12.808;2023-04-26T15:25:11;5.93;;;1.40;;
32838;SDS011;19182;41.820;12.808;2023-04-26T15:27:38;4.88;;;1.45;;
32838;SDS011;19182;41.820;12.808;2023-04-26T15:30:04;4.60;;;1.60;;
32838;SDS011;19182;41.820;12.808;2023-04-26T15:32:30;4.30;;;1.17;;
32838;SDS011;19182;41.820;12.808;2023-04-26T15:34:56;7.82;;;1.90;;
32838;SDS011;19182;41.820;12.808;2023-04-26T15:37:22;4.43;;;1.17;;
32838;SDS011;19182;41.820;12.808;2023-04-26T15:39:50;16.40;;;1.85;;
32838;SDS011;19182;41.820;12.808;2023-04-26T15:42:16;8.88;;;1.63;;
32838;SDS011;19182;41.820;12.808;2023-04-26T15:44:42;6.28;;;1.95;;
32838;SDS011;19182;41.820;12.808;2023-04-26T15:47:08;3.85;;;1.58;;
32838;SDS011;19182;41.820;12.808;2023-04-26T15:49:34;5.25;;;2.10;;
32838;SDS011;19182;41.820;12.808;2023-04-26T15:52:03;2.17;;;1.80;;
32838;SDS011;19182;41.820;12.808;2023-04-26T15:54:29;4.97;;;1.73;;
32838;SDS011;19182;41.820;12.808;2023-04-26T15:56:55;3.33;;;1.30;;
32838;SDS011;19182;41.820;12.808;2023-04-26T15:59:22;4.47;;;1.75;;
32838;SDS011;19182;41.820;12.808;2023-04-26T16:01:49;3.22;;;1.38;;
32838;SDS011;19182;41.820;12.808;2023-04-26T16:04:15;3.58;;;1.13;;
32838;SDS011;19182;41.820;12.808;2023-04-26T16:06:40;3.38;;;1.10;;
32838;SDS011;19182;41.820;12.808;2023-04-26T16:09:06;3.80;;;1.23;;
32838;SDS011;19182;41.820;12.808;2023-04-26T16:11:36;4.45;;;1.48;;
32838;SDS011;19182;41.820;12.808;2023-04-26T16:14:02;3.80;;;1.40;;
32838;SDS011;19182;41.820;12.808;2023-04-26T16:16:28;6.72;;;1.50;;
32838;SDS011;19182;41.820;12.808;2023-04-26T16:18:53;3.03;;;1.05;;
32838;SDS011;19182;41.820;12.808;2023-04-26T16:21:19;2.30;;;1.38;;
32838;SDS011;19182;41.820;12.808;2023-04-26T16:23:45;4.72;;;1.23;;
32838;SDS011;19182;41.820;12.808;2023-04-26T16:26:13;2.38;;;1.10;;
32838;SDS011;19182;41.820;12.808;2023-04-26T16:28:39;1.83;;;1.08;;
32838;SDS011;19182;41.820;12.808;2023-04-26T16:31:05;5.15;;;1.75;;
32838;SDS011;19182;41.820;12.808;2023-04-26T16:33:31;5.15;;;1.35;;
32838;SDS011;19182;41.820;12.808;2023-04-26T16:35:56;4.63;;;1.60;;
32838;SDS011;19182;41.820;12.808;2023-04-26T16:38:22;4.55;;;1.40;;
32838;SDS011;19182;41.820;12.808;2023-04-26T16:40:52;3.78;;;1.35;;
32838;SDS011;19182;41.820;12.808;2023-04-26T16:43:22;2.72;;;1.23;;
32838;SDS011;19182;41.820;12.808;2023-04-26T16:48:31;5.13;;;1.83;;
32838;SDS011;19182;41.820;12.808;2023-04-26T16:51:01;2.20;;;1.02;;
32838;SDS011;19182;41.820;12.808;2023-04-26T16:53:28;4.32;;;1.50;;
32838;SDS011;19182;41.820;12.808;2023-04-26T16:55:55;3.40;;;1.27;;
32838;SDS011;19182;41.820;12.808;2023-04-26T16:58:21;3.83;;;1.35;;
32838;SDS011;19182;41.820;12.808;2023-04-26T17:00:47;2.42;;;1.83;;
32838;SDS011;19182;41.820;12.808;2023-04-26T17:03:13;4.53;;;1.60;;
32838;SDS011;19182;41.820;12.808;2023-04-26T17:05:43;4.97;;;2.03;;
32838;SDS011;19182;41.820;12.808;2023-04-26T17:08:13;7.80;;;2.05;;
32838;SDS011;19182;41.820;12.808;2023-04-26T17:10:40;5.13;;;1.85;;
32838;SDS011;19182;41.820;12.808;2023-04-26T17:13:07;7.95;;;1.92;;
32838;SDS011;19182;41.820;12.808;2023-04-26T17:15:35;4.68;;;2.17;;
32838;SDS011;19182;41.820;12.808;2023-04-26T17:18:01;6.88;;;2.10;;
32838;SDS011;19182;41.820;12.808;2023-04-26T17:20:28;3.63;;;1.70;;
32838;SDS011;19182;41.820;12.808;2023-04-26T17:22:56;3.85;;;1.58;;
32838;SDS011;19182;41.820;12.808;2023-04-26T17:25:22;5.35;;;2.00;;
32838;SDS011;19182;41.820;12.808;2023-04-26T17:27:48;4.55;;;1.55;;
32838;SDS011;19182;41.820;12.808;2023-04-26T17:30:14;8.00;;;2.42;;
32838;SDS011;19182;41.820;12.808;2023-04-26T17:32:40;4.35;;;1.85;;
32838;SDS011;19182;41.820;12.808;2023-04-26T17:35:06;5.75;;;3.65;;
32838;SDS011;19182;41.820;12.808;2023-04-26T17:37:32;7.65;;;3.10;;
32838;SDS011;19182;41.820;12.808;2023-04-26T17:39:58;4.55;;;3.55;;
32838;SDS011;19182;41.820;12.808;2023-04-26T17:42:24;6.63;;;4.00;;
32838;SDS011;19182;41.820;12.808;2023-04-26T17:44:50;6.43;;;3.60;;
32838;SDS011;19182;41.820;12.808;2023-04-26T17:47:17;7.00;;;3.30;;
32838;SDS011;19182;41.820;12.808;2023-04-26T17:49:43;13.63;;;6.70;;
32838;SDS011;19182;41.820;12.808;2023-04-26T17:52:08;11.30;;;3.22;;
32838;SDS011;19182;41.820;12.808;2023-04-26T17:54:34;4.68;;;1.77;;
32838;SDS011;19182;41.820;12.808;2023-04-26T17:57:00;6.80;;;1.83;;
32838;SDS011;19182;41.820;12.808;2023-04-26T17:59:27;4.70;;;1.67;;
32838;SDS011;19182;41.820;12.808;2023-04-26T18:01:53;3.75;;;1.90;;
32838;SDS011;19182;41.820;12.808;2023-04-26T18:04:18;3.88;;;1.73;;
32838;SDS011;19182;41.820;12.808;2023-04-26T18:06:46;5.55;;;1.48;;
32838;SDS011;19182;41.820;12.808;2023-04-26T18:09:13;5.10;;;0.97;;
32838;SDS011;19182;41.820;12.808;2023-04-26T18:11:39;5.28;;;1.60;;
32838;SDS011;19182;41.820;12.808;2023-04-26T18:14:05;6.90;;;1.35;;
32838;SDS011;19182;41.820;12.808;2023-04-26T18:16:31;6.75;;;1.40;;
32838;SDS011;19182;41.820;12.808;2023-04-26T18:18:57;7.03;;;2.00;;
32838;SDS011;19182;41.820;12.808;2023-04-26T18:21:22;4.50;;;1.40;;
32838;SDS011;19182;41.820;12.808;2023-04-26T18:23:48;4.30;;;1.80;;
32838;SDS011;19182;41.820;12.808;2023-04-26T18:26:14;5.35;;;1.80;;
32838;SDS011;19182;41.820;12.808;2023-04-26T18:28:40;9.18;;;1.88;;
32838;SDS011;19182;41.820;12.808;2023-04-26T18:31:08;7.05;;;3.33;;
32838;SDS011;19182;41.820;12.808;2023-04-26T18:33:36;13.73;;;4.63;;
32838;SDS011;19182;41.820;12.808;2023-04-26T18:36:02;8.25;;;3.33;;
32838;SDS011;19182;41.820;12.808;2023-04-26T18:38:29;6.13;;;2.78;;
32838;SDS011;19182;41.820;12.808;2023-04-26T18:40:55;6.03;;;3.55;;
32838;SDS011;19182;41.820;12.808;2023-04-26T18:43:21;14.20;;;4.85;;
32838;SDS011;19182;41.820;12.808;2023-04-26T18:45:48;12.82;;;5.13;;
32838;SDS011;19182;41.820;12.808;2023-04-26T18:48:15;12.82;;;5.53;;
32838;SDS011;19182;41.820;12.808;2023-04-26T18:50:47;14.45;;;6.50;;
32838;SDS011;19182;41.820;12.808;2023-04-26T18:53:15;12.85;;;6.00;;
32838;SDS011;19182;41.820;12.808;2023-04-26T18:55:42;11.90;;;6.03;;
32838;SDS011;19182;41.820;12.808;2023-04-26T18:58:08;11.25;;;5.75;;
32838;SDS011;19182;41.820;12.808;2023-04-26T19:00:35;11.27;;;6.55;;
32838;SDS011;19182;41.820;12.808;2023-04-26T19:03:01;15.95;;;7.10;;
32838;SDS011;19182;41.820;12.808;2023-04-26T19:05:27;11.27;;;6.38;;
32838;SDS011;19182;41.820;12.808;2023-04-26T19:07:54;10.43;;;5.63;;
32838;SDS011;19182;41.820;12.808;2023-04-26T19:10:19;10.93;;;5.30;;
32838;SDS011;19182;41.820;12.808;2023-04-26T19:12:46;10.95;;;4.80;;
32838;SDS011;19182;41.820;12.808;2023-04-26T19:15:12;17.52;;;5.85;;
32838;SDS011;19182;41.820;12.808;2023-04-26T19:17:39;9.27;;;5.30;;
32838;SDS011;19182;41.820;12.808;2023-04-26T19:20:07;11.30;;;5.80;;
32838;SDS011;19182;41.820;12.808;2023-04-26T19:22:36;12.60;;;7.07;;
32838;SDS011;19182;41.820;12.808;2023-04-26T19:25:03;9.70;;;4.85;;
32838;SDS011;19182;41.820;12.808;2023-04-26T19:27:31;8.97;;;4.97;;
32838;SDS011;19182;41.820;12.808;2023-04-26T19:29:57;6.63;;;3.63;;
32838;SDS011;19182;41.820;12.808;2023-04-26T19:32:23;7.35;;;3.75;;
32838;SDS011;19182;41.820;12.808;2023-04-26T19:34:50;7.63;;;4.10;;
32838;SDS011;19182;41.820;12.808;2023-04-26T19:37:17;12.05;;;3.97;;
32838;SDS011;19182;41.820;12.808;2023-04-26T19:39:46;6.05;;;3.33;;
32838;SDS011;19182;41.820;12.808;2023-04-26T19:42:12;8.93;;;3.55;;
32838;SDS011;19182;41.820;12.808;2023-04-26T19:44:37;7.00;;;3.35;;
32838;SDS011;19182;41.820;12.808;2023-04-26T19:47:04;8.15;;;3.00;;
32838;SDS011;19182;41.820;12.808;2023-04-26T19:49:33;6.68;;;3.30;;
32838;SDS011;19182;41.820;12.808;2023-04-26T19:51:59;12.63;;;4.22;;
32838;SDS011;19182;41.820;12.808;2023-04-26T19:54:26;7.50;;;3.22;;
32838;SDS011;19182;41.820;12.808;2023-04-26T19:59:23;7.45;;;3.45;;
32838;SDS011;19182;41.820;12.808;2023-04-26T20:01:49;11.63;;;3.75;;
32838;SDS011;19182;41.820;12.808;2023-04-26T20:04:15;4.25;;;2.40;;
32838;SDS011;19182;41.820;12.808;2023-04-26T20:06:42;3.03;;;2.20;;
32838;SDS011;19182;41.820;12.808;2023-04-26T20:09:08;8.48;;;3.10;;
32838;SDS011;19182;41.820;12.808;2023-04-26T20:11:37;5.05;;;3.00;;
32838;SDS011;19182;41.820;12.808;2023-04-26T20:14:03;7.40;;;3.80;;
32838;SDS011;19182;41.820;12.808;2023-04-26T20:16:31;8.30;;;3.50;;
32838;SDS011;19182;41.820;12.808;2023-04-26T20:18:57;11.57;;;3.92;;
32838;SDS011;19182;41.820;12.808;2023-04-26T20:21:23;10.75;;;3.17;;
32838;SDS011;19182;41.820;12.808;2023-04-26T20:23:50;8.02;;;3.45;;
32838;SDS011;19182;41.820;12.808;2023-04-26T20:26:17;8.75;;;3.80;;
32838;SDS011;19182;41.820;12.808;2023-04-26T20:28:42;11.10;;;3.97;;
32838;SDS011;19182;41.820;12.808;2023-04-26T20:31:09;7.65;;;3.60;;
32838;SDS011;19182;41.820;12.808;2023-04-26T20:33:36;7.80;;;3.53;;
32838;SDS011;19182;41.820;12.808;2023-04-26T20:36:02;9.00;;;3.67;;
32838;SDS011;19182;41.820;12.808;2023-04-26T20:38:28;10.30;;;4.30;;
32838;SDS011;19182;41.820;12.808;2023-04-26T20:40:54;9.50;;;4.70;;
32838;SDS011;19182;41.820;12.808;2023-04-26T20:43:20;9.13;;;4.28;;
32838;SDS011;19182;41.820;12.808;2023-04-26T20:45:45;8.25;;;3.72;;
32838;SDS011;19182;41.820;12.808;2023-04-26T20:48:11;10.10;;;3.92;;
32838;SDS011;19182;41.820;12.808;2023-04-26T20:50:37;9.25;;;3.60;;
32838;SDS011;19182;41.820;12.808;2023-04-26T20:53:03;8.88;;;3.63;;
32838;SDS011;19182;41.820;12.808;2023-04-26T20:55:29;6.90;;;2.97;;
32838;SDS011;19182;41.820;12.808;2023-04-26T20:57:56;5.28;;;3.10;;
32838;SDS011;19182;41.820;12.808;2023-04-26T21:00:22;7.63;;;4.05;;
32838;SDS011;19182;41.820;12.808;2023-04-26T21:02:48;6.78;;;3.30;;
32838;SDS011;19182;41.820;12.808;2023-04-26T21:05:14;5.57;;;2.70;;